Time;durP1;ratioP1;P1;durP2;ratioP2;P2;SDS_P1;SDS_P2;PMS_P1;PMS_P2;Temp;Humidity;BMP_temperature;BMP_pressure;BME280_temperature;BME280_humidity;BME280_pressure;Samples;Min_cycle;Max_cycle;Signal;HPM_P1;HPM_P2
2023/05/07 00:00:59;;;;;;;;;;;12.40;99.90;;;;;;5098746;28;20143;-63
2023/05/07 00:03:26;;;;;;;4.22;1.90;;;12.30;99.90;;;;;;5095764;28;19904;-65
2023/05/07 00:05:52;;;;;;;5.03;1.92;;;12.30;99.90;;;;;;5098963;28;20036;-63
2023/05/07 00:08:18;;;;;;;3.55;2.30;;;12.40;99.90;;;;;;5096165;28;20122;-63
2023/05/07 00:10:44;;;;;;;16.33;2.55;;;12.30;99.90;;;;;;5097625;28;20066;-65
2023/05/07 00:13:10;;;;;;;;;;;12.40;99.90;;;;;;5095085;28;20056;-64
2023/05/07 00:15:35;;;;;;;6.00;2.28;;;12.30;99.90;;;;;;5099587;28;19919;-65
2023/05/07 00:18:01;;;;;;;;;;;12.30;99.90;;;;;;5092882;28;20040;-64
2023/05/07 00:20:27;;;;;;;6.43;2.30;;;12.30;99.90;;;;;;5086281;28;20604;-64
2023/05/07 00:22:53;;;;;;;2.63;1.90;;;12.30;99.90;;;;;;5084026;28;20044;-64
2023/05/07 00:25:19;;;;;;;;;;;12.30;99.90;;;;;;5084822;28;20046;-64
2023/05/07 00:27:45;;;;;;;11.47;3.70;;;12.30;99.90;;;;;;5086466;28;20341;-65
2023/05/07 00:30:11;;;;;;;5.93;2.60;;;12.30;99.90;;;;;;5081564;28;20035;-65
2023/05/07 00:32:37;;;;;;;8.68;2.20;;;12.20;99.90;;;;;;5082873;28;20047;-64
2023/05/07 00:35:04;;;;;;;12.00;3.10;;;12.20;99.90;;;;;;5083769;28;20059;-64
2023/05/07 00:37:30;;;;;;;4.00;2.58;;;12.20;99.90;;;;;;5082104;28;20656;-64
2023/05/07 00:39:56;;;;;;;;;;;12.10;99.90;;;;;;5085850;28;20035;-64
2023/05/07 00:42:22;;;;;;;6.40;3.00;;;12.10;99.90;;;;;;5082238;28;19919;-64
2023/05/07 00:44:47;;;;;;;;;;;12.10;99.90;;;;;;5086398;28;20032;-64
2023/05/07 00:47:14;;;;;;;4.00;2.22;;;12.10;99.90;;;;;;5085792;28;19989;-64
2023/05/07 00:49:41;;;;;;;5.82;2.92;;;12.10;99.90;;;;;;5086883;28;20044;-65
2023/05/07 00:52:09;;;;;;;4.53;2.90;;;12.10;99.90;;;;;;5084581;28;20130;-65
2023/05/07 00:54:35;;;;;;;5.43;2.42;;;12.10;99.90;;;;;;5083765;28;20078;-65
2023/05/07 00:57:01;;;;;;;;;;;12.10;99.90;;;;;;5086049;28;20039;-65
2023/05/07 00:59:27;;;;;;;6.05;3.65;;;12.10;99.90;;;;;;5083519;28;20509;-65
2023/05/07 01:01:53;;;;;;;;;;;12.20;99.90;;;;;;5082901;28;20040;-65
2023/05/07 01:04:18;;;;;;;3.95;2.38;;;12.20;99.90;;;;;;5086357;28;19916;-65
2023/05/07 01:06:45;;;;;;;;;;;12.20;99.90;;;;;;5083884;28;20040;-65
2023/05/07 01:09:12;;;;;;;4.22;2.50;;;12.20;99.90;;;;;;5076897;28;19916;-63
2023/05/07 01:11:38;;;;;;;6.80;3.83;;;12.20;99.90;;;;;;5078647;28;20159;-64
2023/05/07 01:14:04;;;;;;;13.68;3.38;;;12.10;99.90;;;;;;5085388;28;20040;-64
2023/05/07 01:16:31;;;;;;;;;;;12.10;99.90;;;;;;5084731;28;20055;-64
2023/05/07 01:18:56;;;;;;;7.38;3.20;;;12.10;99.90;;;;;;5077760;28;19928;-64
2023/05/07 01:21:26;;;;;;;;;;;12.10;99.90;;;;;;5080202;28;20061;-64
2023/05/07 01:23:53;;;;;;;9.23;2.88;;;12.20;99.90;;;;;;5078563;28;19923;-64
2023/05/07 01:26:19;;;;;;;6.75;3.33;;;12.20;99.90;;;;;;5081671;28;20048;-64
2023/05/07 01:28:45;;;;;;;;;;;12.10;99.90;;;;;;5082255;28;20093;-65
2023/05/07 01:31:13;;;;;;;6.03;3.42;;;12.10;99.90;;;;;;5081132;28;20595;-64
2023/05/07 01:33:41;;;;;;;7.07;3.25;;;12.10;99.90;;;;;;5077537;28;20535;-65
2023/05/07 01:36:08;;;;;;;7.38;3.25;;;12.10;99.90;;;;;;5084747;28;20035;-66
2023/05/07 01:38:35;;;;;;;9.40;3.10;;;12.20;99.90;;;;;;5083534;28;20040;-65
2023/05/07 01:41:01;;;;;;;8.07;3.45;;;12.10;99.90;;;;;;5079549;28;20044;-66
2023/05/07 01:43:28;;;;;;;;;;;12.10;99.90;;;;;;5086582;28;20051;-65
2023/05/07 01:45:54;;;;;;;9.73;2.83;;;12.10;99.90;;;;;;5080892;28;19977;-66
2023/05/07 01:48:20;;;;;;;;;;;12.00;99.90;;;;;;5083295;28;20278;-65
2023/05/07 01:50:47;;;;;;;6.82;3.53;;;12.10;99.90;;;;;;5085383;28;19935;-66
2023/05/07 01:53:12;;;;;;;4.30;2.85;;;12.00;99.90;;;;;;5085556;28;20043;-67
2023/05/07 01:55:38;;;;;;;;;;;12.00;99.90;;;;;;5065155;28;20416;-65
2023/05/07 01:58:04;;;;;;;7.07;3.20;;;12.00;99.90;;;;;;5064902;28;19916;-64
2023/05/07 02:00:31;;;;;;;7.38;3.13;;;12.00;99.90;;;;;;5081275;28;20040;-65
2023/05/07 02:02:57;;;;;;;4.32;2.97;;;12.00;99.90;;;;;;5083291;28;20043;-63
2023/05/07 02:05:23;;;;;;;;;;;12.00;99.90;;;;;;5086270;28;20058;-64
2023/05/07 02:07:48;;;;;;;11.25;3.67;;;12.00;99.90;;;;;;5080918;28;19916;-64
2023/05/07 02:10:15;;;;;;;;;;;12.00;99.90;;;;;;5079444;28;20042;-64
2023/05/07 02:12:41;;;;;;;9.40;3.73;;;11.90;99.90;;;;;;5083854;28;19955;-66
2023/05/07 02:15:06;;;;;;;;;;;11.90;99.90;;;;;;5085003;28;20087;-63
2023/05/07 02:17:32;;;;;;;5.00;3.38;;;12.00;99.90;;;;;;5084426;28;19916;-63
2023/05/07 02:19:58;;;;;;;6.22;4.10;;;11.90;99.90;;;;;;5082685;28;20059;-65
2023/05/07 02:22:25;;;;;;;7.20;3.90;;;11.90;99.90;;;;;;5071070;28;20028;-63
2023/05/07 02:24:50;;;;;;;8.35;3.72;;;11.90;99.90;;;;;;5069333;28;20136;-63
2023/05/07 02:27:16;;;;;;;;;;;11.90;99.90;;;;;;5081290;28;20329;-65
2023/05/07 02:29:41;;;;;;;7.47;4.15;;;11.90;99.90;;;;;;5084442;28;19927;-63
2023/05/07 02:32:07;;;;;;;;;;;11.90;99.90;;;;;;5078614;28;20511;-65
2023/05/07 02:34:33;;;;;;;12.05;3.83;;;11.80;99.90;;;;;;5084245;28;19916;-64
2023/05/07 02:36:58;;;;;;;;;;;11.80;99.90;;;;;;5080173;28;20082;-63
2023/05/07 02:39:24;;;;;;;9.77;3.88;;;11.90;99.90;;;;;;5069395;28;19924;-65
2023/05/07 02:41:50;;;;;;;;;;;11.90;99.90;;;;;;5082056;28;20514;-65
2023/05/07 02:44:15;;;;;;;11.35;4.88;;;11.80;99.90;;;;;;5083762;28;20464;-63
2023/05/07 02:46:41;;;;;;;;;;;11.80;99.90;;;;;;5079326;28;20570;-64
2023/05/07 02:49:06;;;;;;;11.38;4.38;;;11.80;99.90;;;;;;5084436;28;20111;-63
2023/05/07 02:51:32;;;;;;;;;;;11.80;99.90;;;;;;5081434;28;20028;-64
2023/05/07 02:53:57;;;;;;;6.85;4.13;;;11.80;99.90;;;;;;5081901;28;19920;-64
2023/05/07 02:56:26;;;;;;;10.35;4.32;;;11.80;99.90;;;;;;5073376;28;20040;-64
2023/05/07 02:58:51;;;;;;;8.88;5.00;;;11.90;99.90;;;;;;5081848;28;20035;-64
2023/05/07 03:01:17;;;;;;;;;;;11.90;99.90;;;;;;5081645;28;20043;-64
2023/05/07 03:03:42;;;;;;;9.95;5.05;;;11.90;99.90;;;;;;5084616;28;19919;-65
2023/05/07 03:06:08;;;;;;;;;;;11.80;99.90;;;;;;5084411;28;20205;-65
2023/05/07 03:08:33;;;;;;;10.32;4.50;;;11.80;99.90;;;;;;5078537;28;20088;-64
2023/05/07 03:10:59;;;;;;;;;;;11.70;99.90;;;;;;5076190;28;20704;-64
2023/05/07 03:13:25;;;;;;;12.43;5.38;;;11.80;99.90;;;;;;5079090;28;19912;-64
2023/05/07 03:15:50;;;;;;;9.82;5.38;;;11.80;99.90;;;;;;5081542;28;20504;-64
2023/05/07 03:18:16;;;;;;;;;;;11.70;99.90;;;;;;5074398;28;20123;-64
2023/05/07 03:20:41;;;;;;;7.22;4.75;;;11.80;99.90;;;;;;5075406;28;19942;-63
2023/05/07 03:23:07;;;;;;;;;;;11.70;99.90;;;;;;5074192;28;20085;-64
2023/05/07 03:25:33;;;;;;;7.03;4.75;;;11.80;99.90;;;;;;5075909;28;19982;-64
2023/05/07 03:27:59;;;;;;;;;;;11.80;99.90;;;;;;5081745;28;20480;-64
2023/05/07 03:30:24;;;;;;;16.42;9.40;;;11.80;99.90;;;;;;5075650;28;19924;-64
2023/05/07 03:32:50;;;;;;;;;;;11.80;99.90;;;;;;5070507;28;20040;-64
2023/05/07 03:35:16;;;;;;;16.63;11.70;;;11.80;99.90;;;;;;5081602;28;19916;-64
2023/05/07 03:37:41;;;;;;;;;;;11.80;99.90;;;;;;5073310;28;20040;-64
2023/05/07 03:40:09;;;;;;;17.63;11.70;;;11.90;99.90;;;;;;5072167;28;19921;-63
2023/05/07 03:42:34;;;;;;;23.55;12.40;;;11.90;99.90;;;;;;5074512;28;20489;-63
2023/05/07 03:45:00;;;;;;;;;;;11.90;99.90;;;;;;5070663;28;20035;-64
2023/05/07 03:47:25;;;;;;;;;;;11.90;99.90;;;;;;5084067;28;19928;-64
2023/05/07 03:49:52;;;;;;;;;;;12.00;99.90;;;;;;5080148;28;19920;-64
2023/05/07 03:52:22;;;;;;;;;;;12.00;99.90;;;;;;5084607;28;20056;-64
2023/05/07 03:54:48;;;;;;;;;;;12.00;99.90;;;;;;5079701;28;19955;-63
2023/05/07 03:57:13;;;;;;;;;;;12.00;99.90;;;;;;5067644;28;19987;-63
2023/05/07 03:59:39;;;;;;;;;;;12.00;99.90;;;;;;5085850;28;20366;-64
2023/05/07 04:02:05;;;;;;;;;;;12.00;99.90;;;;;;5087733;28;19920;-64
2023/05/07 04:04:32;;;;;;;;;;;12.10;99.90;;;;;;5088591;28;19920;-64
2023/05/07 04:06:59;;;;;;;;;;;12.10;99.90;;;;;;5088155;28;19927;-64
2023/05/07 04:09:25;;;;;;;;;;;12.10;99.90;;;;;;5089526;28;19915;-65
2023/05/07 04:11:50;;;;;;;;;;;12.00;99.90;;;;;;5081923;28;19922;-65
2023/05/07 04:14:16;;;;;;;;;;;12.00;99.90;;;;;;5083945;28;20034;-64
2023/05/07 04:16:41;;;;;;;;;;;11.90;99.90;;;;;;5087702;28;20387;-66
2023/05/07 04:19:07;;;;;;;;;;;11.90;99.90;;;;;;5087798;28;20438;-65
2023/05/07 04:21:32;;;;;;;;;;;12.00;99.90;;;;;;5082402;28;19920;-65
2023/05/07 04:23:58;;;;;;;;;;;12.00;99.90;;;;;;5078474;28;19927;-65
2023/05/07 04:26:24;;;;;;;;;;;12.00;99.90;;;;;;5083271;28;20111;-65
2023/05/07 04:28:50;;;;;;;;;;;12.10;99.90;;;;;;5084137;28;19946;-64
2023/05/07 04:31:16;;;;;;;;;;;12.10;99.90;;;;;;5076923;28;19965;-65
2023/05/07 04:33:41;;;;;;;;;;;12.10;99.90;;;;;;5080191;28;19970;-63
2023/05/07 04:36:07;;;;;;;;;;;12.00;99.90;;;;;;5087432;28;19916;-65
2023/05/07 04:38:33;;;;;;;;;;;12.00;99.90;;;;;;5082524;28;20053;-65
2023/05/07 04:41:02;;;;;;;;;;;12.00;99.90;;;;;;5082244;28;20368;-63
2023/05/07 04:43:28;;;;;;;;;;;12.00;99.90;;;;;;5087218;28;20008;-65
2023/05/07 04:45:53;;;;;;;;;;;11.90;99.90;;;;;;5078766;28;20348;-65
2023/05/07 04:48:20;;;;;;;;;;;11.90;99.90;;;;;;5086665;28;20427;-65
2023/05/07 04:50:49;;;;;;;;;;;11.90;99.90;;;;;;5086149;28;19923;-65
2023/05/07 04:53:14;;;;;;;;;;;11.80;99.90;;;;;;5084112;28;19964;-65
2023/05/07 04:55:40;;;;;;;;;;;11.80;99.90;;;;;;5086478;28;19912;-66
2023/05/07 04:58:05;;;;;;;;;;;11.80;99.90;;;;;;5071097;28;20295;-65
2023/05/07 05:00:31;;;;;;;;;;;11.70;99.90;;;;;;5082539;28;20415;-64
2023/05/07 05:02:56;;;;;;;;;;;11.60;99.90;;;;;;5083889;28;19927;-64
2023/05/07 05:05:22;;;;;;;;;;;11.60;99.90;;;;;;5085231;28;19996;-64
2023/05/07 05:07:48;;;;;;;;;;;11.60;99.90;;;;;;5087309;28;20162;-64
2023/05/07 05:10:13;;;;;;;;;;;11.60;99.90;;;;;;5080203;28;19937;-64
2023/05/07 05:12:39;;;;;;;;;;;11.60;99.90;;;;;;5073981;28;19916;-64
2023/05/07 05:15:05;;;;;;;;;;;11.60;99.90;;;;;;5079622;28;19920;-64
2023/05/07 05:17:30;;;;;;;;;;;11.60;99.90;;;;;;5085829;28;19963;-64
2023/05/07 05:19:56;;;;;;;;;;;11.70;99.90;;;;;;5080857;28;19960;-64
2023/05/07 05:22:21;;;;;;;;;;;11.60;99.90;;;;;;5082922;28;20020;-63
2023/05/07 05:24:47;;;;;;;;;;;11.70;99.90;;;;;;5086877;28;19920;-69
2023/05/07 05:27:13;;;;;;;;;;;11.60;99.90;;;;;;5084540;28;21285;-66
2023/05/07 05:29:38;;;;;;;;;;;11.60;99.90;;;;;;5085068;28;19950;-65
2023/05/07 05:32:04;;;;;;;;;;;11.60;99.90;;;;;;5080084;28;20870;-65
2023/05/07 05:34:29;;;;;;;;;;;11.60;99.90;;;;;;5083250;28;19924;-66
2023/05/07 05:36:55;;;;;;;;;;;11.60;99.90;;;;;;5079733;28;20463;-65
2023/05/07 05:39:22;;;;;;;;;;;11.60;99.90;;;;;;5074035;28;20299;-65
2023/05/07 05:41:48;;;;;;;;;;;11.70;99.90;;;;;;5077648;28;19922;-70
2023/05/07 05:44:13;;;;;;;;;;;11.60;99.90;;;;;;5081141;28;19916;-67
2023/05/07 05:46:39;;;;;;;;;;;11.70;99.90;;;;;;5077387;28;19928;-66
2023/05/07 05:49:05;;;;;;;;;;;11.60;99.90;;;;;;5085891;28;20209;-63
2023/05/07 05:51:31;;;;;;;;;;;11.60;99.90;;;;;;5084508;28;20394;-67
2023/05/07 05:53:56;;;;;;;;;;;11.50;99.90;;;;;;5085938;28;20395;-66
2023/05/07 05:56:22;;;;;;;;;;;11.50;99.90;;;;;;5085510;28;19955;-65
2023/05/07 05:58:47;;;;;;;;;;;11.60;99.90;;;;;;5073756;28;20010;-66
2023/05/07 06:01:13;;;;;;;;;;;11.70;99.90;;;;;;5082854;28;19924;-66
2023/05/07 06:03:39;;;;;;;;;;;11.70;99.90;;;;;;5082575;28;19927;-67
2023/05/07 06:06:04;;;;;;;;;;;11.70;99.90;;;;;;5084665;28;19924;-64
2023/05/07 06:08:30;;;;;;;;;;;11.80;99.90;;;;;;5078038;28;20323;-65
2023/05/07 06:10:56;;;;;;;;;;;11.80;99.90;;;;;;5084872;28;19973;-66
2023/05/07 06:13:22;;;;;;;;;;;11.80;99.90;;;;;;5078302;28;19920;-65
2023/05/07 06:15:48;;;;;;;;;;;11.90;99.90;;;;;;5078098;28;20526;-67
2023/05/07 06:18:14;;;;;;;;;;;11.80;99.90;;;;;;5076835;28;19922;-66
2023/05/07 06:20:39;;;;;;;;;;;11.90;99.90;;;;;;5082196;28;19924;-65
2023/05/07 06:23:05;;;;;;;;;;;11.90;99.90;;;;;;5079968;28;20399;-63
2023/05/07 06:25:30;;;;;;;;;;;11.90;99.90;;;;;;5079553;28;19916;-64
2023/05/07 06:27:56;;;;;;;;;;;11.90;99.90;;;;;;5081485;28;19923;-68
2023/05/07 06:30:21;;;;;;;;;;;11.90;99.90;;;;;;5081025;28;19924;-63
2023/05/07 06:32:47;;;;;;;;;;;11.90;99.90;;;;;;5082817;28;19915;-65
2023/05/07 06:35:12;;;;;;;;;;;11.90;99.90;;;;;;5074701;28;19989;-67
2023/05/07 06:37:39;;;;;;;;;;;12.00;99.90;;;;;;5081751;28;19955;-66
2023/05/07 06:40:05;;;;;;;;;;;12.00;99.90;;;;;;5080660;28;19920;-66
2023/05/07 06:42:31;;;;;;;;;;;12.00;99.90;;;;;;5075868;28;19991;-66
2023/05/07 06:44:56;;;;;;;;;;;12.10;99.90;;;;;;5076295;28;20019;-65
2023/05/07 06:47:22;;;;;;;;;;;12.10;99.90;;;;;;5076614;28;20769;-66
2023/05/07 06:49:48;;;;;;;;;;;12.10;99.90;;;;;;5085250;28;19916;-66
2023/05/07 06:52:13;;;;;;;;;;;12.10;99.90;;;;;;5082243;28;19927;-66
2023/05/07 06:54:39;;;;;;;;;;;12.20;99.90;;;;;;5085551;28;20589;-65
2023/05/07 06:57:04;;;;;;;;;;;12.30;99.90;;;;;;5084486;28;20400;-65
2023/05/07 06:59:30;;;;;;;;;;;12.30;99.90;;;;;;5079250;28;19927;-65
2023/05/07 07:01:55;;;;;;;;;;;12.40;99.90;;;;;;5076900;28;20300;-64
2023/05/07 07:04:23;;;;;;;;;;;12.40;99.90;;;;;;5082005;28;20140;-64
2023/05/07 07:06:49;;;;;;;;;;;12.40;99.90;;;;;;5084618;28;19920;-64
2023/05/07 07:09:14;;;;;;;;;;;12.40;99.90;;;;;;5082078;28;19927;-64
2023/05/07 07:11:40;;;;;;;;;;;12.50;99.90;;;;;;5084135;28;20021;-66
2023/05/07 07:14:06;;;;;;;;;;;12.60;99.90;;;;;;5083316;28;19920;-65
2023/05/07 07:16:31;;;;;;;;;;;12.60;99.90;;;;;;5071982;28;20006;-65
2023/05/07 07:18:57;;;;;;;;;;;12.70;99.90;;;;;;5082146;28;19920;-65
2023/05/07 07:21:23;;;;;;;;;;;12.80;99.90;;;;;;5079948;28;19926;-64
2023/05/07 07:23:49;;;;;;;;;;;12.80;99.90;;;;;;5080734;28;19920;-64
2023/05/07 07:26:14;;;;;;;;;;;12.80;99.90;;;;;;5082656;28;19920;-64
2023/05/07 07:28:43;;;;;;;;;;;12.70;99.90;;;;;;5081132;28;19916;-64
2023/05/07 07:31:09;;;;;;;;;;;12.70;99.90;;;;;;5077377;28;19923;-64
2023/05/07 07:33:35;;;;;;;;;;;12.90;99.90;;;;;;5087374;28;19920;-65
2023/05/07 07:36:00;;;;;;;;;;;12.90;99.90;;;;;;5087421;28;19920;-65
2023/05/07 07:38:26;;;;;;;;;;;12.90;99.90;;;;;;5085544;28;20353;-65
2023/05/07 07:40:51;;;;;;;;;;;12.90;99.90;;;;;;5088097;28;20362;-64
2023/05/07 07:43:17;;;;;;;;;;;13.00;99.90;;;;;;5088852;28;19920;-65
2023/05/07 07:45:42;;;;;;;;;;;13.10;99.90;;;;;;5084790;28;20875;-65
2023/05/07 07:48:08;;;;;;;;;;;13.00;99.90;;;;;;5084246;28;20771;-64
2023/05/07 07:50:33;;;;;;;;;;;13.00;99.90;;;;;;5086862;28;20294;-63
2023/05/07 07:53:00;;;;;;;;;;;13.00;99.90;;;;;;5083533;28;20931;-64
2023/05/07 07:55:26;;;;;;;;;;;12.90;99.90;;;;;;5087504;28;19959;-63
2023/05/07 07:57:52;;;;;;;;;;;12.90;99.90;;;;;;5073393;28;19973;-64
2023/05/07 08:00:18;;;;;;;;;;;13.00;99.90;;;;;;5086279;28;19920;-64
2023/05/07 08:02:43;;;;;;;;;;;13.10;99.90;;;;;;5086120;28;20014;-64
2023/05/07 08:05:09;;;;;;;;;;;12.90;99.90;;;;;;5085990;28;19942;-64
2023/05/07 08:07:34;;;;;;;;;;;12.90;99.90;;;;;;5085747;28;20387;-63
2023/05/07 08:10:00;;;;;;;;;;;13.00;99.90;;;;;;5080673;28;19916;-64
2023/05/07 08:12:26;;;;;;;;;;;13.10;99.90;;;;;;5087326;28;19927;-64
2023/05/07 08:14:51;;;;;;;;;;;13.30;99.90;;;;;;5081299;28;19920;-64
2023/05/07 08:17:17;;;;;;;;;;;13.30;99.90;;;;;;5079140;28;20035;-64
2023/05/07 08:19:43;;;;;;;;;;;13.30;99.90;;;;;;5076875;28;19920;-64
2023/05/07 08:22:09;;;;;;;;;;;13.40;99.90;;;;;;5089036;28;19977;-64
2023/05/07 08:24:35;;;;;;;;;;;13.50;99.90;;;;;;5089851;28;20039;-64
2023/05/07 08:27:01;;;;;;;;;;;13.60;99.90;;;;;;5085813;28;19923;-64
2023/05/07 08:29:26;;;;;;;;;;;13.70;99.90;;;;;;5086334;28;19951;-64
2023/05/07 08:31:52;;;;;;;;;;;13.60;99.90;;;;;;5083543;28;20010;-65
2023/05/07 08:34:17;;;;;;;;;;;13.20;99.90;;;;;;5079598;28;19962;-65
2023/05/07 08:36:43;;;;;;;;;;;13.10;99.90;;;;;;5085521;28;20415;-65
2023/05/07 08:39:09;;;;;;;;;;;13.10;99.90;;;;;;5086994;28;19923;-64
2023/05/07 08:41:34;;;;;;;;;;;13.10;99.90;;;;;;5085281;28;19919;-63
2023/05/07 08:44:02;;;;;;;;;;;13.20;99.90;;;;;;5081996;28;19955;-64
2023/05/07 08:46:30;;;;;;;;;;;13.30;99.90;;;;;;5078916;28;19924;-64
2023/05/07 08:48:55;;;;;;;;;;;13.30;99.90;;;;;;5084833;28;19918;-65
2023/05/07 08:51:21;;;;;;;;;;;13.40;99.90;;;;;;5087249;28;19920;-64
2023/05/07 08:53:50;;;;;;;;;;;13.40;99.90;;;;;;5085193;28;20280;-64
2023/05/07 08:56:16;;;;;;;;;;;13.50;99.90;;;;;;5081866;28;20013;-65
2023/05/07 08:58:42;;;;;;;;;;;13.60;99.90;;;;;;5083068;28;19920;-65
2023/05/07 09:01:10;;;;;;;;;;;13.70;99.90;;;;;;5083974;28;19916;-65
2023/05/07 09:03:37;;;;;;;;;;;13.70;99.90;;;;;;5065735;28;19967;-65
2023/05/07 09:06:02;;;;;;;;;;;13.60;99.90;;;;;;5077174;28;19966;-66
2023/05/07 09:08:28;;;;;;;;;;;13.50;99.90;;;;;;5074863;28;19979;-65
2023/05/07 09:10:54;;;;;;;;;;;13.60;99.90;;;;;;5077499;28;19954;-66
2023/05/07 09:13:20;;;;;;;;;;;13.70;99.90;;;;;;5083924;28;19939;-65
2023/05/07 09:15:45;;;;;;;;;;;13.60;99.90;;;;;;5085963;28;20303;-65
2023/05/07 09:18:12;;;;;;;;;;;13.60;99.90;;;;;;5083474;28;19919;-65
2023/05/07 09:20:37;;;;;;;;;;;13.60;99.90;;;;;;5079729;28;19927;-65
2023/05/07 09:23:03;;;;;;;;;;;13.50;99.90;;;;;;5082886;28;19916;-65
2023/05/07 09:25:29;;;;;;;;;;;13.40;99.90;;;;;;5085137;28;20664;-64
2023/05/07 09:27:55;;;;;;;;;;;13.40;99.90;;;;;;5084815;28;19920;-65
2023/05/07 09:30:20;;;;;;;;;;;13.30;99.90;;;;;;5081966;28;20551;-64
2023/05/07 09:32:46;;;;;;;;;;;13.10;99.90;;;;;;5073547;28;20287;-65
2023/05/07 09:35:16;;;;;;;;;;;13.20;99.90;;;;;;5082494;28;19924;-63
2023/05/07 09:37:42;;;;;;;;;;;13.20;99.90;;;;;;5077925;28;20002;-63
2023/05/07 09:40:09;;;;;;;;;;;13.30;99.90;;;;;;5087161;28;19916;-64
2023/05/07 09:42:34;;;;;;;;;;;13.50;99.90;;;;;;5074214;28;19947;-62
2023/05/07 09:45:00;;;;;;;;;;;13.70;99.90;;;;;;5076071;28;19942;-63
2023/05/07 09:47:28;;;;;;;;;;;13.90;99.90;;;;;;5077551;28;20298;-64
2023/05/07 09:49:56;;;;;;;;;;;14.00;99.90;;;;;;5085545;28;20376;-63
2023/05/07 09:52:21;;;;;;;;;;;14.00;99.90;;;;;;5082436;28;19916;-64
2023/05/07 09:54:49;;;;;;;;;;;13.80;99.90;;;;;;5083450;28;19942;-63
2023/05/07 09:57:15;;;;;;;;;;;13.90;99.90;;;;;;5083559;28;19955;-65
2023/05/07 09:59:42;;;;;;;;;;;13.90;99.90;;;;;;5080985;28;20324;-65
2023/05/07 10:02:10;;;;;;;;;;;13.80;99.90;;;;;;5080516;28;19959;-64
2023/05/07 10:04:35;;;;;;;;;;;13.80;99.90;;;;;;5068255;28;19924;-64
2023/05/07 10:07:01;;;;;;;;;;;14.00;99.90;;;;;;5088589;28;19932;-64
2023/05/07 10:09:27;;;;;;;;;;;14.00;99.90;;;;;;5078337;28;19924;-64
2023/05/07 10:11:53;;;;;;;;;;;14.10;99.90;;;;;;5080864;28;19966;-65
2023/05/07 10:14:20;;;;;;;;;;;14.20;99.90;;;;;;5080088;28;20447;-64
2023/05/07 10:16:47;;;;;;;;;;;14.00;99.90;;;;;;5084815;28;19923;-63
2023/05/07 10:19:12;;;;;;;;;;;14.00;99.90;;;;;;5076999;28;19920;-63
2023/05/07 10:21:39;;;;;;;;;;;14.20;99.90;;;;;;5081400;28;19977;-65
2023/05/07 10:24:25;;;;;;;;;;;14.40;99.90;;;;;;5075131;28;19977;-63
2023/05/07 10:26:52;;;;;;;;;;;14.70;99.90;;;;;;5079932;28;19924;-66
2023/05/07 10:29:21;;;;;;;;;;;14.60;99.90;;;;;;5082853;28;20567;-66
2023/05/07 10:32:06;;;;;;;;;;;14.60;99.90;;;;;;5071543;28;19923;-65
2023/05/07 10:34:37;;;;;;;;;;;14.90;99.90;;;;;;5072994;28;19916;-64
2023/05/07 10:37:03;;;;;;;;;;;15.00;99.90;;;;;;5072118;28;19943;-64
2023/05/07 10:39:29;;;;;;;;;;;15.40;99.90;;;;;;5076360;28;20387;-64
2023/05/07 10:41:55;;;;;;;;;;;15.70;99.90;;;;;;5074531;28;19977;-64
2023/05/07 10:44:29;;;;;;;;;;;15.60;99.90;;;;;;5072613;28;19920;-64
2023/05/07 10:47:05;;;;;;;;;;;15.70;99.90;;;;;;5076035;28;19920;-63
2023/05/07 10:49:31;;;;;;;;;;;15.90;99.90;;;;;;5074556;28;19955;-64
2023/05/07 10:52:13;;;;;;;;;;;16.10;99.90;;;;;;5074020;28;19959;-65
2023/05/07 10:54:39;;;;;;;;;;;16.60;99.90;;;;;;5074252;28;19920;-63
2023/05/07 10:57:23;;;;;;;;;;;17.00;99.90;;;;;;5076202;28;19990;-63
2023/05/07 10:59:48;;;;;;;;;;;17.10;99.90;;;;;;5072366;28;19924;-65
2023/05/07 11:02:15;;;;;;;;;;;17.20;99.90;;;;;;5070361;28;19943;-64
2023/05/07 11:04:41;;;;;;;;;;;17.20;99.90;;;;;;5071182;28;20026;-64
2023/05/07 11:07:08;;;;;;;;;;;17.20;99.90;;;;;;5070306;28;20391;-64
2023/05/07 11:09:52;;;;;;;;;;;17.30;99.90;;;;;;5079766;28;19930;-64
2023/05/07 11:12:36;;;;;;;;;;;17.50;99.90;;;;;;5081843;28;20269;-63
2023/05/07 11:15:12;;;;;;;;;;;17.50;99.90;;;;;;5067608;28;19920;-64
2023/05/07 11:17:57;;;;;;;;;;;17.40;99.90;;;;;;5082398;28;19961;-65
2023/05/07 11:20:41;;;;;;;;;;;17.50;99.90;;;;;;5078720;28;20338;-64
2023/05/07 11:23:06;;;;;;;;;;;17.60;99.90;;;;;;5068402;28;20004;-64
2023/05/07 11:25:32;;;;;;;;;;;17.90;99.90;;;;;;5074877;28;19969;-63
2023/05/07 11:28:04;;;;;;;;;;;17.90;99.90;;;;;;5080215;28;19924;-63
2023/05/07 11:30:30;;;;;;;;;;;18.20;99.90;;;;;;5071880;28;19920;-63
2023/05/07 11:32:55;;;;;;;;;;;18.00;99.90;;;;;;5080358;28;19920;-64
2023/05/07 11:35:22;;;;;;;;;;;18.20;99.90;;;;;;5065514;28;20335;-62
2023/05/07 11:37:48;;;;;;;;;;;18.40;99.90;;;;;;5060114;28;19920;-64
2023/05/07 11:40:14;;;;;;;;;;;18.40;99.90;;;;;;5075463;28;19930;-64
2023/05/07 11:42:40;;;;;;;;;;;18.50;99.90;;;;;;5070868;28;19939;-65
2023/05/07 11:45:07;;;;;;;;;;;18.60;99.90;;;;;;5081390;28;19920;-64
2023/05/07 11:47:33;;;;;;;;;;;18.70;99.90;;;;;;5083641;28;19920;-65
2023/05/07 11:50:02;;;;;;;;;;;18.70;99.90;;;;;;5082280;28;20018;-64
2023/05/07 11:52:28;;;;;;;;;;;18.40;99.90;;;;;;5076242;28;19928;-64
2023/05/07 11:54:57;;;;;;;;;;;18.00;99.90;;;;;;5083250;28;19976;-64
2023/05/07 11:57:24;;;;;;;;;;;18.10;99.90;;;;;;5078884;28;20410;-65
2023/05/07 11:59:53;;;;;;;;;;;18.10;99.90;;;;;;5080730;28;19916;-65
2023/05/07 12:02:19;;;;;;;;;;;17.70;99.90;;;;;;5074934;28;20536;-64
2023/05/07 12:04:44;;;;;;;;;;;17.30;99.90;;;;;;5077357;28;19919;-64
2023/05/07 12:07:16;;;;;;;;;;;17.40;99.90;;;;;;5079495;28;19926;-64
2023/05/07 12:09:42;;;;;;;;;;;17.40;99.90;;;;;;5080615;28;19963;-64
2023/05/07 12:12:09;;;;;;;;;;;17.60;99.90;;;;;;5076550;28;20016;-65
2023/05/07 12:14:39;;;;;;;;;;;18.00;99.90;;;;;;5086604;28;19927;-64
2023/05/07 12:17:04;;;;;;;;;;;18.10;99.90;;;;;;5086821;28;19922;-63
2023/05/07 12:19:30;;;;;;;;;;;18.00;99.90;;;;;;5082066;28;19920;-64
2023/05/07 12:21:56;;;;;;;;;;;18.10;99.90;;;;;;5084905;28;20557;-63
2023/05/07 12:24:21;;;;;;;;;;;18.20;99.90;;;;;;5082231;28;19919;-65
2023/05/07 12:26:47;;;;;;;;;;;18.20;99.90;;;;;;5085501;28;19924;-64
2023/05/07 12:29:13;;;;;;;;;;;18.10;99.90;;;;;;5084878;28;19924;-63
2023/05/07 12:31:40;;;;;;;;;;;18.00;99.90;;;;;;5083360;28;20341;-63
2023/05/07 12:34:06;;;;;;;;;;;18.00;99.90;;;;;;5084336;28;20383;-63
2023/05/07 12:36:38;;;;;;;;;;;17.80;99.90;;;;;;5087393;28;19916;-64
2023/05/07 12:39:10;;;;;;;;;;;17.80;99.90;;;;;;5087410;28;19984;-64
2023/05/07 12:41:51;;;;;;;;;;;17.80;99.90;;;;;;5085399;28;19924;-64
2023/05/07 12:44:17;;;;;;;;;;;17.70;99.90;;;;;;5067698;28;19920;-64
2023/05/07 12:46:42;;;;;;;;;;;17.70;99.90;;;;;;5086254;28;20057;-63
2023/05/07 12:49:09;;;;;;;;;;;17.60;99.90;;;;;;5079434;28;19917;-64
2023/05/07 12:51:34;;;;;;;;;;;17.60;99.90;;;;;;5077800;28;19919;-64
2023/05/07 12:54:00;;;;;;;;;;;17.60;99.90;;;;;;5081456;28;19926;-64
2023/05/07 12:56:26;;;;;;;;;;;17.50;99.90;;;;;;5085719;28;20011;-63
2023/05/07 12:58:51;;;;;;;;;;;17.40;99.90;;;;;;5085158;28;20364;-63
2023/05/07 13:01:19;;;;;;;;;;;17.20;99.90;;;;;;5085448;28;19916;-65
2023/05/07 13:03:48;;;;;;;;;;;17.20;99.90;;;;;;5083485;28;19931;-64
2023/05/07 13:06:13;;;;;;;;;;;17.10;99.90;;;;;;5084757;28;19927;-63
2023/05/07 13:08:40;;;;;;;;;;;17.00;99.90;;;;;;5079221;28;19920;-64
2023/05/07 13:11:06;;;;;;;;;;;16.90;99.90;;;;;;5081973;28;19922;-63
2023/05/07 13:13:33;;;;;;;;;;;16.80;99.90;;;;;;5080850;28;20020;-64
2023/05/07 13:15:59;;;;;;;;;;;16.90;99.90;;;;;;5087364;28;19916;-66
2023/05/07 13:18:25;;;;;;;;;;;16.70;99.90;;;;;;5086604;28;20295;-64
2023/05/07 13:20:51;;;;;;;;;;;16.70;99.90;;;;;;5080607;28;19928;-65
2023/05/07 13:23:16;;;;;;;;;;;16.70;99.90;;;;;;5085547;28;19986;-65
2023/05/07 13:25:42;;;;;;;;;;;16.70;99.90;;;;;;5086731;28;20060;-64
2023/05/07 13:28:08;;;;;;;;;;;16.60;99.90;;;;;;5083540;28;19916;-65
2023/05/07 13:30:34;;;;;;;;;;;16.70;99.90;;;;;;5081572;28;19967;-64
2023/05/07 13:33:00;;;;;;;;;;;16.70;99.90;;;;;;5084248;28;20011;-65
2023/05/07 13:35:25;;;;;;;;;;;16.70;99.90;;;;;;5084583;28;20011;-64
2023/05/07 13:37:52;;;;;;;;;;;16.70;99.90;;;;;;5081039;28;19981;-63
2023/05/07 13:40:17;;;;;;;;;;;16.60;99.90;;;;;;5082377;28;20018;-63
2023/05/07 13:42:43;;;;;;;;;;;16.70;99.90;;;;;;5084035;28;20009;-63
2023/05/07 13:45:09;;;;;;;;;;;16.60;99.90;;;;;;5092741;28;19922;-64
2023/05/07 13:47:34;;;;;;;;;;;16.50;99.90;;;;;;5087271;28;19970;-64
2023/05/07 13:50:00;;;;;;;;;;;16.40;99.90;;;;;;5084276;28;19926;-64
2023/05/07 13:52:26;;;;;;;;;;;16.20;99.90;;;;;;5082408;28;19931;-64
2023/05/07 13:54:52;;;;;;;;;;;16.30;99.90;;;;;;5083384;28;19915;-64